createdAt,value
2022-11-24T00:01:30.856Z,4.52
2022-11-24T00:04:07.577Z,4.48
2022-11-24T00:06:36.233Z,4.48
2022-11-24T00:09:05.710Z,4.46
2022-11-24T00:11:36.644Z,4.49
2022-11-24T00:14:06.554Z,4.48
2022-11-24T00:16:37.584Z,4.46
2022-11-24T00:19:10.391Z,4.48
2022-11-24T00:21:38.798Z,4.51
2022-11-24T00:24:06.827Z,4.52
2022-11-24T00:26:37.555Z,4.51
2022-11-24T00:29:07.977Z,4.45
2022-11-24T00:31:41.642Z,4.42
2022-11-24T00:34:14.830Z,4.43
2022-11-24T00:36:43.250Z,4.49
2022-11-24T00:39:15.199Z,4.52
2022-11-24T00:41:43.686Z,4.57
2022-11-24T00:44:11.315Z,4.62
2022-11-24T00:46:38.979Z,4.60
2022-11-24T00:49:06.799Z,4.54
2022-11-24T00:51:34.206Z,4.60
2022-11-24T00:54:02.637Z,4.50
2022-11-24T00:56:30.726Z,4.47
2022-11-24T00:58:58.476Z,4.43
2022-11-24T01:01:30.329Z,4.41
2022-11-24T01:04:03.477Z,4.41
2022-11-24T01:06:32.846Z,4.45
2022-11-24T01:09:00.494Z,4.47
2022-11-24T01:11:55.346Z,4.48
2022-11-24T01:14:25.335Z,4.59
2022-11-24T01:16:53.180Z,4.62
2022-11-24T01:19:21.611Z,4.67
2022-11-24T01:21:48.988Z,4.71
2022-11-24T01:24:16.899Z,4.73
2022-11-24T01:26:44.236Z,4.78
2022-11-24T01:29:12.461Z,4.78
2022-11-24T01:31:40.172Z,4.78
2022-11-24T01:34:07.997Z,4.80
2022-11-24T01:36:35.317Z,4.83
2022-11-24T01:39:02.904Z,4.84
2022-11-24T01:41:30.247Z,4.83
2022-11-24T01:43:58.209Z,4.84
2022-11-24T01:46:47.966Z,4.78
2022-11-24T01:49:35.752Z,4.83
2022-11-24T01:52:41.308Z,4.81
2022-11-24T01:55:23.209Z,4.76
2022-11-24T01:57:59.838Z,4.83
2022-11-24T02:00:27.794Z,4.82
2022-11-24T02:02:55.201Z,4.81
2022-11-24T02:05:46.234Z,4.77
2022-11-24T02:08:40.695Z,4.71
2022-11-24T02:11:08.392Z,4.75
2022-11-24T02:13:38.633Z,4.78
2022-11-24T02:16:10.445Z,4.81
2022-11-24T02:18:40.390Z,4.88
2022-11-24T02:21:08.764Z,4.92
2022-11-24T02:23:55.584Z,4.91
2022-11-24T02:26:47.154Z,4.86
2022-11-24T02:29:15.527Z,4.92
2022-11-24T02:31:51.258Z,4.92
2022-11-24T02:34:18.596Z,4.94
2022-11-24T02:36:46.154Z,4.95
2022-11-24T02:39:14.911Z,4.93
2022-11-24T02:41:51.610Z,4.91
2022-11-24T02:44:24.920Z,4.94
2022-11-24T02:47:07.276Z,4.91
2022-11-24T02:49:34.597Z,4.89
2022-11-24T02:52:03.406Z,4.90
2022-11-24T02:54:31.234Z,4.82
2022-11-24T02:56:59.316Z,4.83
2022-11-24T02:59:26.741Z,4.83
2022-11-24T03:01:54.412Z,4.90
2022-11-24T03:04:21.806Z,4.84
2022-11-24T03:06:49.573Z,4.90
2022-11-24T03:09:16.858Z,4.95
2022-11-24T03:11:44.547Z,5.00
2022-11-24T03:14:11.791Z,5.06
2022-11-24T03:16:39.393Z,5.10
2022-11-24T03:19:06.894Z,5.13
2022-11-24T03:21:36.996Z,5.16
2022-11-24T03:24:04.655Z,5.18
2022-11-24T03:26:35.154Z,5.16
2022-11-24T03:29:02.969Z,5.12
2022-11-24T03:31:30.614Z,5.02
2022-11-24T03:33:57.892Z,5.06
2022-11-24T03:36:25.537Z,5.06
2022-11-24T03:38:52.946Z,5.04
2022-11-24T03:41:20.526Z,4.89
2022-11-24T03:43:47.908Z,4.78
2022-11-24T03:46:15.554Z,4.80
2022-11-24T03:48:42.945Z,4.77
2022-11-24T03:51:10.972Z,4.84
2022-11-24T03:53:38.424Z,4.86
2022-11-24T03:56:06.410Z,4.82
2022-11-24T03:58:33.797Z,4.75
2022-11-24T04:01:01.397Z,4.77
2022-11-24T04:03:28.848Z,4.72
2022-11-24T04:05:56.554Z,4.81
2022-11-24T04:08:23.844Z,4.71
2022-11-24T04:10:54.111Z,4.73
2022-11-24T04:13:25.632Z,4.70
2022-11-24T04:15:54.256Z,4.62
2022-11-24T04:18:22.132Z,4.60
2022-11-24T04:20:52.544Z,4.59
2022-11-24T04:23:20.185Z,4.61
2022-11-24T04:25:47.843Z,4.66
2022-11-24T04:28:15.121Z,4.65
2022-11-24T04:30:45.180Z,4.61
2022-11-24T04:33:13.541Z,4.54
2022-11-24T04:35:41.295Z,4.61
2022-11-24T04:38:08.686Z,4.64
2022-11-24T04:40:37.090Z,4.60
2022-11-24T04:43:04.392Z,4.57
2022-11-24T04:45:31.965Z,4.54
2022-11-24T04:47:59.342Z,4.51
2022-11-24T04:50:26.945Z,4.53
2022-11-24T04:52:54.278Z,4.52
2022-11-24T04:55:21.788Z,4.52
2022-11-24T04:57:49.053Z,4.54
2022-11-24T05:00:17.372Z,4.50
2022-11-24T05:02:44.618Z,4.40
2022-11-24T05:05:12.244Z,4.35
2022-11-24T05:07:39.698Z,4.08
2022-11-24T05:10:26.620Z,4.04
2022-11-24T05:12:59.764Z,3.99
2022-11-24T05:15:27.694Z,3.95
2022-11-24T05:17:57.211Z,3.97
2022-11-24T05:20:25.611Z,4.04
2022-11-24T05:22:52.886Z,4.00
2022-11-24T05:25:20.734Z,4.00
2022-11-24T05:27:47.998Z,4.02
2022-11-24T05:30:15.620Z,4.09
2022-11-24T05:32:42.877Z,4.08
2022-11-24T05:35:10.462Z,4.08
2022-11-24T05:37:38.226Z,4.09
2022-11-24T05:40:07.220Z,4.11
2022-11-24T05:42:47.549Z,4.16
2022-11-24T05:45:20.001Z,4.19
2022-11-24T05:47:49.089Z,4.17
2022-11-24T05:50:20.090Z,4.24
2022-11-24T05:52:48.723Z,4.16
2022-11-24T05:55:19.652Z,4.11
2022-11-24T05:57:46.950Z,4.06
2022-11-24T06:00:18.042Z,4.16
2022-11-24T06:02:45.332Z,4.17
2022-11-24T06:05:13.068Z,4.09
2022-11-24T06:07:40.742Z,4.00
2022-11-24T06:10:08.794Z,4.05
2022-11-24T06:12:36.533Z,3.97
2022-11-24T06:15:04.591Z,3.92
2022-11-24T06:17:31.883Z,3.85
2022-11-24T06:19:59.461Z,3.87
2022-11-24T06:22:26.681Z,3.90
2022-11-24T06:24:54.179Z,3.84
2022-11-24T06:27:21.416Z,3.78
2022-11-24T06:29:48.982Z,3.86
2022-11-24T06:32:16.504Z,3.81
2022-11-24T06:34:44.433Z,3.73
2022-11-24T06:37:11.848Z,3.88
2022-11-24T06:39:39.342Z,3.94
2022-11-24T06:42:06.668Z,3.84
2022-11-24T06:44:39.517Z,3.81
2022-11-24T06:47:06.830Z,3.74
2022-11-24T06:49:34.474Z,3.73
2022-11-24T06:52:01.716Z,3.74
2022-11-24T06:54:29.253Z,3.70
2022-11-24T06:56:58.263Z,3.84
2022-11-24T06:59:30.953Z,3.73
2022-11-24T07:01:58.269Z,3.74
2022-11-24T07:04:32.416Z,3.70
2022-11-24T07:06:59.995Z,3.64
2022-11-24T07:09:27.496Z,3.78
2022-11-24T07:11:56.375Z,3.79
2022-11-24T07:14:23.955Z,3.72
2022-11-24T07:16:51.276Z,3.74
2022-11-24T07:19:24.398Z,3.78
2022-11-24T07:21:52.165Z,3.78
2022-11-24T07:24:19.730Z,3.89
2022-11-24T07:26:47.097Z,3.81
2022-11-24T07:29:15.017Z,3.79
2022-11-24T07:31:42.785Z,3.72
2022-11-24T07:34:10.499Z,3.78
2022-11-24T07:36:37.820Z,3.79
2022-11-24T07:39:07.253Z,3.78
2022-11-24T07:41:34.507Z,3.81
2022-11-24T07:44:02.116Z,3.84
2022-11-24T07:46:29.583Z,3.95
2022-11-24T07:48:57.085Z,3.96
2022-11-24T07:51:24.659Z,4.04
2022-11-24T07:53:52.295Z,4.05
2022-11-24T07:56:19.572Z,4.07
2022-11-24T07:58:52.696Z,4.03
2022-11-24T08:01:20.805Z,4.11
2022-11-24T08:03:48.560Z,4.10
2022-11-24T08:06:30.279Z,4.14
2022-11-24T08:09:03.895Z,4.14
2022-11-24T08:11:33.042Z,4.18
2022-11-24T08:14:01.184Z,4.22
2022-11-24T08:16:28.493Z,4.09
2022-11-24T08:18:56.538Z,4.15
2022-11-24T08:21:24.840Z,4.20
2022-11-24T08:23:57.598Z,4.09
2022-11-24T08:26:26.554Z,4.32
2022-11-24T08:28:57.777Z,4.29
2022-11-24T08:31:32.847Z,4.43
2022-11-24T08:34:03.201Z,4.42
2022-11-24T08:36:30.881Z,4.32
2022-11-24T08:39:00.595Z,4.43
2022-11-24T08:41:30.129Z,4.38
2022-11-24T08:43:58.799Z,4.48
2022-11-24T08:46:26.133Z,4.38
2022-11-24T08:48:55.463Z,4.38
2022-11-24T08:51:26.389Z,4.18
2022-11-24T08:53:56.928Z,4.21
2022-11-24T08:56:25.809Z,4.26
2022-11-24T08:58:55.221Z,4.20
2022-11-24T09:01:29.217Z,4.25
2022-11-24T09:03:57.191Z,4.19
2022-11-24T09:06:32.358Z,4.19
2022-11-24T09:09:00.136Z,4.09
2022-11-24T09:11:29.055Z,4.19
2022-11-24T09:13:56.834Z,4.23
2022-11-24T09:16:27.858Z,4.22
2022-11-24T09:19:02.744Z,4.23
2022-11-24T09:21:34.440Z,4.10
2022-11-24T09:24:05.238Z,4.27
2022-11-24T09:26:36.955Z,4.20
2022-11-24T09:29:08.082Z,4.12
2022-11-24T09:31:37.671Z,4.14
2022-11-24T09:34:13.097Z,4.16
2022-11-24T09:36:40.704Z,4.12
2022-11-24T09:39:08.475Z,4.22
2022-11-24T09:42:06.593Z,4.17
2022-11-24T09:45:15.394Z,4.10
2022-11-24T09:48:10.855Z,4.17
2022-11-24T09:50:39.077Z,4.25
2022-11-24T09:53:12.418Z,4.22
2022-11-24T09:55:58.621Z,4.30
2022-11-24T09:58:50.929Z,4.22
2022-11-24T10:01:24.750Z,4.19
2022-11-24T10:03:53.647Z,4.22
2022-11-24T10:06:25.145Z,4.21
2022-11-24T10:09:15.519Z,4.17
2022-11-24T10:11:58.662Z,4.16
2022-11-24T10:14:55.062Z,4.12
2022-11-24T10:18:05.440Z,4.08
2022-11-24T10:21:26.279Z,4.07
2022-11-24T10:24:54.215Z,4.21
2022-11-24T10:27:32.827Z,4.09
2022-11-24T10:30:01.783Z,4.10
2022-11-24T10:32:46.001Z,4.04
2022-11-24T10:35:26.620Z,4.06
2022-11-24T10:38:17.291Z,4.22
2022-11-24T10:40:59.596Z,4.28
2022-11-24T10:43:29.048Z,4.41
2022-11-24T10:46:19.812Z,4.41
2022-11-24T10:49:00.617Z,4.52
2022-11-24T10:51:56.861Z,4.58
2022-11-24T10:54:24.647Z,4.49
2022-11-24T10:56:55.514Z,4.66
2022-11-24T10:59:25.578Z,4.75
2022-11-24T11:01:53.780Z,4.66
2022-11-24T11:04:35.022Z,4.57
2022-11-24T11:07:22.806Z,4.42
2022-11-24T11:09:50.865Z,4.31
2022-11-24T11:12:43.312Z,4.38
2022-11-24T11:15:26.567Z,4.36
2022-11-24T11:17:59.650Z,4.32
2022-11-24T11:20:35.181Z,4.38
2022-11-24T11:23:19.103Z,4.31
2022-11-24T11:25:46.318Z,4.23
2022-11-24T11:28:29.783Z,4.35
2022-11-24T11:31:22.001Z,4.39
2022-11-24T11:34:10.685Z,4.39
2022-11-24T11:36:47.722Z,4.40
2022-11-24T11:39:32.162Z,4.35
2022-11-24T11:43:00.188Z,4.26
2022-11-24T11:45:26.764Z,4.35
2022-11-24T11:47:59.536Z,4.36
2022-11-24T11:51:21.832Z,4.27
2022-11-24T11:54:44.307Z,4.19
2022-11-24T11:57:53.421Z,4.14
2022-11-24T12:00:22.435Z,4.24
2022-11-24T12:03:36.293Z,4.29
2022-11-24T12:06:45.840Z,4.27
2022-11-24T12:09:56.894Z,4.17
2022-11-24T12:12:58.138Z,4.20
2022-11-24T12:15:50.246Z,4.07
2022-11-24T12:18:57.585Z,4.25
2022-11-24T12:21:45.337Z,4.20
2022-11-24T12:24:21.976Z,4.20
2022-11-24T12:27:23.126Z,4.35
2022-11-24T12:30:08.967Z,4.26
2022-11-24T12:33:05.186Z,4.35
2022-11-24T12:35:56.045Z,4.32
2022-11-24T12:38:39.552Z,4.21
2022-11-24T12:41:43.250Z,4.22
2022-11-24T12:44:35.393Z,4.06
2022-11-24T12:47:52.946Z,3.99
2022-11-24T12:50:27.350Z,4.09
2022-11-24T12:53:16.102Z,4.05
2022-11-24T12:55:45.540Z,4.03
2022-11-24T12:58:52.295Z,3.88
2022-11-24T13:01:44.317Z,3.99
2022-11-24T13:04:23.416Z,3.90
2022-11-24T13:07:04.838Z,3.82
2022-11-24T13:09:32.201Z,3.89
2022-11-24T13:12:26.314Z,3.86
2022-11-24T13:14:53.548Z,3.82
2022-11-24T13:17:43.478Z,3.80
2022-11-24T13:20:19.452Z,3.88
2022-11-24T13:22:54.586Z,3.69
2022-11-24T13:25:30.547Z,3.74
2022-11-24T13:28:01.048Z,3.74
2022-11-24T13:30:34.285Z,3.61
2022-11-24T13:33:32.216Z,3.67
2022-11-24T13:36:02.323Z,3.59
2022-11-24T13:38:45.066Z,3.67
2022-11-24T13:41:34.290Z,3.70
2022-11-24T13:44:13.957Z,3.62
2022-11-24T13:47:06.822Z,3.75
2022-11-24T13:49:43.127Z,3.78
2022-11-24T13:53:06.572Z,3.71
2022-11-24T13:55:41.434Z,3.73
2022-11-24T13:58:14.589Z,3.74
2022-11-24T14:01:03.845Z,3.78
2022-11-24T14:04:07.190Z,3.86
2022-11-24T14:06:52.742Z,3.79
2022-11-24T14:09:44.670Z,3.92
2022-11-24T14:12:26.829Z,3.93
2022-11-24T14:15:20.647Z,3.85
2022-11-24T14:17:48.221Z,3.93
2022-11-24T14:20:27.485Z,3.90
2022-11-24T14:22:55.251Z,3.98
2022-11-24T14:25:32.085Z,3.89
2022-11-24T14:28:13.527Z,3.99
2022-11-24T14:30:40.888Z,3.91
2022-11-24T14:33:12.926Z,4.02
2022-11-24T14:35:48.127Z,3.94
2022-11-24T14:38:16.101Z,4.11
2022-11-24T14:40:53.234Z,4.04
2022-11-24T14:43:32.805Z,3.93
2022-11-24T14:46:04.624Z,4.08
2022-11-24T14:48:39.869Z,4.00
2022-11-24T14:51:17.252Z,3.97
2022-11-24T14:53:49.206Z,4.03
2022-11-24T14:56:32.967Z,4.06
2022-11-24T14:59:01.352Z,4.17
2022-11-24T15:01:28.590Z,4.19
2022-11-24T15:04:39.313Z,4.28
2022-11-24T15:07:27.148Z,4.28
2022-11-24T15:10:01.915Z,4.32
2022-11-24T15:12:34.874Z,4.32
2022-11-24T15:15:13.839Z,4.40
2022-11-24T15:18:02.736Z,4.30
2022-11-24T15:20:35.297Z,4.28
2022-11-24T15:23:49.189Z,4.30
2022-11-24T15:26:19.505Z,4.18
2022-11-24T15:28:47.179Z,4.13
2022-11-24T15:31:14.983Z,4.28
2022-11-24T15:33:42.647Z,4.31
2022-11-24T15:36:14.109Z,4.38
2022-11-24T15:38:41.483Z,4.38
2022-11-24T15:41:31.757Z,4.42
2022-11-24T15:43:59.504Z,4.43
2022-11-24T15:46:38.046Z,4.47
2022-11-24T15:49:06.693Z,4.57
2022-11-24T15:51:37.281Z,4.60
2022-11-24T15:54:04.586Z,4.58
2022-11-24T15:56:37.780Z,4.61
2022-11-24T15:59:05.329Z,4.62
2022-11-24T16:01:34.458Z,4.59
2022-11-24T16:04:02.873Z,4.65
2022-11-24T16:06:31.090Z,4.71
2022-11-24T16:08:59.162Z,4.69
2022-11-24T16:11:26.973Z,4.71
2022-11-24T16:13:54.572Z,4.74
2022-11-24T16:16:25.354Z,4.65
2022-11-24T16:18:53.040Z,4.73
2022-11-24T16:21:20.648Z,4.71
2022-11-24T16:23:48.854Z,4.71
2022-11-24T16:26:16.403Z,4.75
2022-11-24T16:28:45.308Z,4.74
2022-11-24T16:31:15.830Z,4.68
2022-11-24T16:33:45.440Z,4.61
2022-11-24T16:36:14.505Z,4.59
2022-11-24T16:38:41.848Z,4.51
2022-11-24T16:41:10.689Z,4.51
2022-11-24T16:43:38.754Z,4.46
2022-11-24T16:46:09.269Z,4.49
2022-11-24T16:48:37.192Z,4.49
2022-11-24T16:51:10.201Z,4.53
2022-11-24T16:53:38.139Z,4.61
2022-11-24T16:56:06.458Z,4.50
2022-11-24T16:58:37.473Z,4.59
2022-11-24T17:01:08.129Z,4.66
2022-11-24T17:03:38.981Z,4.62
2022-11-24T17:06:09.762Z,4.62
2022-11-24T17:08:39.663Z,4.64
2022-11-24T17:11:13.520Z,4.59
2022-11-24T17:13:42.615Z,4.64
2022-11-24T17:16:17.055Z,4.62
2022-11-24T17:18:45.852Z,4.55
2022-11-24T17:21:23.305Z,4.60
2022-11-24T17:24:01.423Z,4.50
2022-11-24T17:26:29.032Z,4.56
2022-11-24T17:28:56.979Z,4.40
2022-11-24T17:31:35.863Z,4.48
2022-11-24T17:34:06.475Z,4.43
2022-11-24T17:36:35.624Z,4.40
2022-11-24T17:39:07.158Z,4.25
2022-11-24T17:41:34.799Z,4.38
2022-11-24T17:44:02.883Z,4.33
2022-11-24T17:46:31.400Z,4.32
2022-11-24T17:49:01.799Z,4.25
2022-11-24T17:51:29.130Z,4.31
2022-11-24T17:53:57.664Z,4.31
2022-11-24T17:56:28.205Z,4.39
2022-11-24T17:59:00.040Z,4.38
2022-11-24T18:01:30.240Z,4.26
2022-11-24T18:03:58.696Z,4.28
2022-11-24T18:06:28.675Z,4.33
2022-11-24T18:08:57.908Z,4.35
2022-11-24T18:11:31.410Z,4.39
2022-11-24T18:14:04.458Z,4.44
2022-11-24T18:16:35.030Z,4.54
2022-11-24T18:19:09.181Z,4.62
2022-11-24T18:21:39.283Z,4.69
2022-11-24T18:24:26.036Z,4.65
2022-11-24T18:26:53.373Z,4.62
2022-11-24T18:29:21.657Z,4.52
2022-11-24T18:31:49.000Z,4.61
2022-11-24T18:34:16.618Z,4.55
2022-11-24T18:36:45.264Z,4.48
2022-11-24T18:39:18.004Z,4.47
2022-11-24T18:41:47.498Z,4.54
2022-11-24T18:44:15.212Z,4.49
2022-11-24T18:46:42.468Z,4.48
2022-11-24T18:49:10.688Z,4.42
2022-11-24T18:51:38.567Z,4.44
2022-11-24T18:54:06.476Z,4.52
2022-11-24T18:56:34.079Z,4.40
2022-11-24T18:59:01.832Z,4.49
2022-11-24T19:01:30.086Z,4.45
2022-11-24T19:04:01.851Z,4.41
2022-11-24T19:06:35.462Z,4.43
2022-11-24T19:09:08.217Z,4.42
2022-11-24T19:11:39.138Z,4.48
2022-11-24T19:14:11.972Z,4.43
2022-11-24T19:16:40.115Z,4.41
2022-11-24T19:19:08.728Z,4.44
2022-11-24T19:21:39.262Z,4.41
2022-11-24T19:24:10.875Z,4.48
2022-11-24T19:26:39.219Z,4.45
2022-11-24T19:29:08.012Z,4.45
2022-11-24T19:31:36.035Z,4.34
2022-11-24T19:34:05.445Z,4.39
2022-11-24T19:36:33.097Z,4.30
2022-11-24T19:39:01.025Z,4.33
2022-11-24T19:41:30.996Z,4.36
2022-11-24T19:43:58.877Z,4.38
2022-11-24T19:46:29.849Z,4.43
2022-11-24T19:49:01.645Z,4.36
2022-11-24T19:51:39.857Z,4.41
2022-11-24T19:54:12.859Z,4.47
2022-11-24T19:56:41.384Z,4.47
2022-11-24T19:59:13.995Z,4.44
2022-11-24T20:01:42.635Z,4.52
2022-11-24T20:04:15.640Z,4.62
2022-11-24T20:06:47.671Z,4.62
2022-11-24T20:09:18.644Z,4.66
2022-11-24T20:11:46.840Z,4.61
2022-11-24T20:14:18.863Z,4.65
2022-11-24T20:16:48.271Z,4.71
2022-11-24T20:19:18.062Z,4.71
2022-11-24T20:21:47.889Z,4.74
2022-11-24T20:24:24.790Z,4.79
2022-11-24T20:27:00.149Z,4.79
2022-11-24T20:29:29.292Z,4.79
2022-11-24T20:31:57.216Z,4.81
2022-11-24T20:34:26.450Z,4.88
2022-11-24T20:36:53.733Z,4.90
2022-11-24T20:39:26.514Z,4.87
2022-11-24T20:41:56.116Z,4.88
2022-11-24T20:44:26.605Z,4.95
2022-11-24T20:46:58.219Z,4.95
2022-11-24T20:49:26.962Z,4.97
2022-11-24T20:51:57.566Z,4.97
2022-11-24T20:54:25.630Z,4.96
2022-11-24T20:56:52.905Z,5.02
2022-11-24T20:59:24.101Z,4.86
2022-11-24T21:01:55.260Z,4.90
2022-11-24T21:04:26.862Z,4.88
2022-11-24T21:06:54.737Z,4.94
2022-11-24T21:09:22.408Z,4.89
2022-11-24T21:11:49.751Z,4.80
2022-11-24T21:14:27.436Z,4.80
2022-11-24T21:16:56.270Z,4.78
2022-11-24T21:19:23.862Z,4.74
2022-11-24T21:21:51.098Z,4.74
2022-11-24T21:24:21.845Z,4.77
2022-11-24T21:26:51.857Z,4.76
2022-11-24T21:29:22.470Z,4.84
2022-11-24T21:31:50.056Z,4.81
2022-11-24T21:34:19.257Z,4.74
2022-11-24T21:36:47.332Z,4.74
2022-11-24T21:39:15.990Z,4.71
2022-11-24T21:41:43.829Z,4.61
2022-11-24T21:44:13.510Z,4.60
2022-11-24T21:46:49.502Z,4.57
2022-11-24T21:49:20.079Z,4.63
2022-11-24T21:51:47.780Z,4.64
2022-11-24T21:54:15.237Z,4.60
2022-11-24T21:56:42.669Z,4.57
2022-11-24T21:59:10.302Z,4.51
2022-11-24T22:01:37.613Z,4.47
2022-11-24T22:04:05.449Z,4.40
2022-11-24T22:06:33.426Z,4.33
2022-11-24T22:09:00.965Z,4.17
2022-11-24T22:11:28.246Z,4.17
2022-11-24T22:13:55.855Z,4.02
2022-11-24T22:16:24.729Z,4.06
2022-11-24T22:18:52.882Z,3.97
2022-11-24T22:21:24.341Z,4.01
2022-11-24T22:23:52.966Z,4.01
2022-11-24T22:26:23.385Z,4.00
2022-11-24T22:28:52.235Z,3.90
2022-11-24T22:31:26.137Z,3.88
2022-11-24T22:33:55.055Z,3.80
2022-11-24T22:36:27.373Z,3.81
2022-11-24T22:39:03.079Z,3.83
2022-11-24T22:41:33.553Z,3.83
2022-11-24T22:44:01.317Z,3.86
2022-11-24T22:46:30.920Z,3.77
2022-11-24T22:49:01.770Z,3.83
2022-11-24T22:51:34.706Z,3.86
2022-11-24T22:54:05.693Z,3.83
2022-11-24T22:56:34.107Z,3.88
2022-11-24T22:59:04.704Z,3.84
2022-11-24T23:01:36.599Z,3.81
2022-11-24T23:04:04.440Z,3.85
2022-11-24T23:06:33.457Z,3.83
2022-11-24T23:09:04.240Z,3.86
2022-11-24T23:11:38.417Z,3.85
2022-11-24T23:14:13.203Z,3.77
2022-11-24T23:16:41.102Z,3.80
2022-11-24T23:19:09.060Z,3.73
2022-11-24T23:21:38.901Z,3.82
2022-11-24T23:24:08.642Z,3.74
2022-11-24T23:26:39.863Z,3.66
2022-11-24T23:29:08.344Z,3.63
2022-11-24T23:31:36.413Z,3.63
2022-11-24T23:34:04.553Z,3.64
2022-11-24T23:36:33.341Z,3.59
2022-11-24T23:39:08.599Z,3.73
2022-11-24T23:41:36.233Z,3.71
2022-11-24T23:44:04.290Z,3.76
2022-11-24T23:46:32.259Z,3.86
2022-11-24T23:48:59.839Z,3.77
2022-11-24T23:51:32.574Z,3.74
2022-11-24T23:54:01.229Z,3.76
2022-11-24T23:56:32.964Z,3.78
2022-11-24T23:59:03.942Z,3.87
